Martell, California
Current Conditions -  °F | °C
As of 12:15 PM on Wednesday 26 Nov 2014 (Local Time) from KPVF Reporting Station
Clear Clear  
Wind Chill: 66°   Ceiling: Unl
Heat Index: 66°   Visibility: 10mi
Dew Point: 37°   Wind: 0mph
Humidity: 35%   Direction: NA
Pressure: 30.32"   Gusts: NA
Location:  38.37°N, 120.79°W
Report Text: KPVF 262015Z AUTO 00000KT 10SM CLR 19/03 A3032 RMK AO1
Loading
Personal Weather Stations






























Interactive Weather Map New forecast layout! Learn more

10-Day Weather Forecast

Advertisements
Track Severe Weather on mobile